sensor_id;sensor_type;location;lat;lon;timestamp;temperature;humidity
52073;DHT22;38074;51.232;6.826;2023-08-07T00:00:57;24.70;55.40
52073;DHT22;38074;51.232;6.826;2023-08-07T00:08:14;24.70;55.40
52073;DHT22;38074;51.232;6.826;2023-08-07T00:15:29;24.70;55.40
52073;DHT22;38074;51.232;6.826;2023-08-07T00:22:45;24.70;55.40
52073;DHT22;38074;51.232;6.826;2023-08-07T00:30:00;24.70;55.40
52073;DHT22;38074;51.232;6.826;2023-08-07T00:37:15;24.70;55.30
52073;DHT22;38074;51.232;6.826;2023-08-07T00:44:31;24.70;55.30
52073;DHT22;38074;51.232;6.826;2023-08-07T00:51:46;24.70;55.30
52073;DHT22;38074;51.232;6.826;2023-08-07T00:59:02;24.70;55.20
52073;DHT22;38074;51.232;6.826;2023-08-07T01:06:18;24.70;55.20
52073;DHT22;38074;51.232;6.826;2023-08-07T01:13:35;24.70;55.20
52073;DHT22;38074;51.232;6.826;2023-08-07T01:20:52;24.70;55.20
52073;DHT22;38074;51.232;6.826;2023-08-07T01:35:43;24.70;55.20
52073;DHT22;38074;51.232;6.826;2023-08-07T01:42:59;24.70;55.20
52073;DHT22;38074;51.232;6.826;2023-08-07T01:50:15;24.70;55.10
52073;DHT22;38074;51.232;6.826;2023-08-07T01:57:31;24.70;55.10
52073;DHT22;38074;51.232;6.826;2023-08-07T02:04:46;24.70;55.10
52073;DHT22;38074;51.232;6.826;2023-08-07T02:12:02;24.70;55.20
52073;DHT22;38074;51.232;6.826;2023-08-07T02:19:17;24.70;55.10
52073;DHT22;38074;51.232;6.826;2023-08-07T02:26:33;24.70;55.10
52073;DHT22;38074;51.232;6.826;2023-08-07T02:33:48;24.70;55.10
52073;DHT22;38074;51.232;6.826;2023-08-07T02:41:04;24.70;55.10
52073;DHT22;38074;51.232;6.826;2023-08-07T02:48:19;24.70;55.10
52073;DHT22;38074;51.232;6.826;2023-08-07T02:55:35;24.70;55.10
52073;DHT22;38074;51.232;6.826;2023-08-07T03:02:50;24.70;55.10
52073;DHT22;38074;51.232;6.826;2023-08-07T03:10:06;24.70;55.10
52073;DHT22;38074;51.232;6.826;2023-08-07T03:17:22;24.70;55.10
52073;DHT22;38074;51.232;6.826;2023-08-07T03:24:38;24.70;55.10
52073;DHT22;38074;51.232;6.826;2023-08-07T03:31:53;24.70;55.10
52073;DHT22;38074;51.232;6.826;2023-08-07T03:39:09;24.70;55.10
52073;DHT22;38074;51.232;6.826;2023-08-07T03:46:25;24.70;55.10
52073;DHT22;38074;51.232;6.826;2023-08-07T03:53:41;24.70;55.10
52073;DHT22;38074;51.232;6.826;2023-08-07T04:00:56;24.70;55.10
52073;DHT22;38074;51.232;6.826;2023-08-07T04:08:12;24.70;55.10
52073;DHT22;38074;51.232;6.826;2023-08-07T04:15:27;24.60;55.00
52073;DHT22;38074;51.232;6.826;2023-08-07T04:22:43;24.70;55.00
52073;DHT22;38074;51.232;6.826;2023-08-07T04:30:00;24.70;55.10
52073;DHT22;38074;51.232;6.826;2023-08-07T04:37:15;24.60;55.00
52073;DHT22;38074;51.232;6.826;2023-08-07T04:44:30;24.60;55.00
52073;DHT22;38074;51.232;6.826;2023-08-07T04:51:46;24.60;54.90
52073;DHT22;38074;51.232;6.826;2023-08-07T04:59:01;24.70;55.00
52073;DHT22;38074;51.232;6.826;2023-08-07T05:06:20;24.60;55.50
52073;DHT22;38074;51.232;6.826;2023-08-07T05:13:35;24.60;54.90
52073;DHT22;38074;51.232;6.826;2023-08-07T05:20:51;24.60;54.80
52073;DHT22;38074;51.232;6.826;2023-08-07T05:28:06;24.70;54.90
52073;DHT22;38074;51.232;6.826;2023-08-07T05:35:29;24.60;54.70
52073;DHT22;38074;51.232;6.826;2023-08-07T05:42:45;24.60;54.70
52073;DHT22;38074;51.232;6.826;2023-08-07T05:50:00;24.60;54.70
52073;DHT22;38074;51.232;6.826;2023-08-07T05:57:17;24.60;54.50
52073;DHT22;38074;51.232;6.826;2023-08-07T06:04:33;24.60;54.30
52073;DHT22;38074;51.232;6.826;2023-08-07T06:11:48;24.60;54.40
52073;DHT22;38074;51.232;6.826;2023-08-07T06:19:04;24.70;54.40
52073;DHT22;38074;51.232;6.826;2023-08-07T06:26:19;24.70;54.30
52073;DHT22;38074;51.232;6.826;2023-08-07T06:33:35;24.70;54.20
52073;DHT22;38074;51.232;6.826;2023-08-07T06:40:50;24.70;54.10
52073;DHT22;38074;51.232;6.826;2023-08-07T06:48:06;24.80;53.90
52073;DHT22;38074;51.232;6.826;2023-08-07T06:55:22;24.70;53.80
52073;DHT22;38074;51.232;6.826;2023-08-07T07:02:37;24.70;53.80
52073;DHT22;38074;51.232;6.826;2023-08-07T07:09:53;24.70;53.80
52073;DHT22;38074;51.232;6.826;2023-08-07T07:17:08;24.70;53.90
52073;DHT22;38074;51.232;6.826;2023-08-07T07:24:23;24.70;53.80
52073;DHT22;38074;51.232;6.826;2023-08-07T07:31:39;24.60;53.80
52073;DHT22;38074;51.232;6.826;2023-08-07T07:38:54;24.60;53.80
52073;DHT22;38074;51.232;6.826;2023-08-07T07:46:10;24.60;54.00
52073;DHT22;38074;51.232;6.826;2023-08-07T07:53:26;24.70;54.10
52073;DHT22;38074;51.232;6.826;2023-08-07T08:00:41;24.70;54.10
52073;DHT22;38074;51.232;6.826;2023-08-07T08:07:57;24.70;54.10
52073;DHT22;38074;51.232;6.826;2023-08-07T08:15:12;24.70;54.10
52073;DHT22;38074;51.232;6.826;2023-08-07T08:22:28;24.70;54.10
52073;DHT22;38074;51.232;6.826;2023-08-07T08:29:44;24.70;54.10
52073;DHT22;38074;51.232;6.826;2023-08-07T08:37:01;24.80;54.20
52073;DHT22;38074;51.232;6.826;2023-08-07T08:44:16;24.80;54.20
52073;DHT22;38074;51.232;6.826;2023-08-07T08:51:32;24.80;54.20
52073;DHT22;38074;51.232;6.826;2023-08-07T08:58:48;24.80;54.10
52073;DHT22;38074;51.232;6.826;2023-08-07T09:06:04;24.80;54.20
52073;DHT22;38074;51.232;6.826;2023-08-07T09:13:22;24.80;54.20
52073;DHT22;38074;51.232;6.826;2023-08-07T09:20:39;24.90;54.30
52073;DHT22;38074;51.232;6.826;2023-08-07T09:27:55;24.90;54.20
52073;DHT22;38074;51.232;6.826;2023-08-07T09:35:12;24.90;54.20
52073;DHT22;38074;51.232;6.826;2023-08-07T09:42:30;24.80;54.30
52073;DHT22;38074;51.232;6.826;2023-08-07T09:49:45;24.90;54.30
52073;DHT22;38074;51.232;6.826;2023-08-07T09:57:01;24.90;54.30
52073;DHT22;38074;51.232;6.826;2023-08-07T10:04:17;24.90;54.30
52073;DHT22;38074;51.232;6.826;2023-08-07T10:11:32;24.90;54.20
52073;DHT22;38074;51.232;6.826;2023-08-07T10:18:48;24.90;54.20
52073;DHT22;38074;51.232;6.826;2023-08-07T10:26:06;25.00;54.20
52073;DHT22;38074;51.232;6.826;2023-08-07T10:33:23;24.90;54.10
52073;DHT22;38074;51.232;6.826;2023-08-07T10:40:58;25.00;54.10
52073;DHT22;38074;51.232;6.826;2023-08-07T10:48:17;25.00;54.10
52073;DHT22;38074;51.232;6.826;2023-08-07T10:55:42;25.00;54.00
52073;DHT22;38074;51.232;6.826;2023-08-07T11:02:58;25.00;54.10
52073;DHT22;38074;51.232;6.826;2023-08-07T11:10:15;25.00;54.00
52073;DHT22;38074;51.232;6.826;2023-08-07T11:17:31;25.00;54.00
52073;DHT22;38074;51.232;6.826;2023-08-07T11:24:46;25.00;53.90
52073;DHT22;38074;51.232;6.826;2023-08-07T11:32:02;25.00;53.60
52073;DHT22;38074;51.232;6.826;2023-08-07T11:39:18;24.90;53.40
52073;DHT22;38074;51.232;6.826;2023-08-07T11:46:35;24.90;53.30
52073;DHT22;38074;51.232;6.826;2023-08-07T11:53:50;24.90;53.20
52073;DHT22;38074;51.232;6.826;2023-08-07T12:01:12;24.90;53.10
52073;DHT22;38074;51.232;6.826;2023-08-07T12:08:31;24.90;53.10
52073;DHT22;38074;51.232;6.826;2023-08-07T12:15:49;24.90;52.90
52073;DHT22;38074;51.232;6.826;2023-08-07T12:23:06;24.90;52.80
52073;DHT22;38074;51.232;6.826;2023-08-07T12:30:26;24.90;52.60
52073;DHT22;38074;51.232;6.826;2023-08-07T12:37:41;24.90;52.50
52073;DHT22;38074;51.232;6.826;2023-08-07T12:44:57;24.90;52.40
52073;DHT22;38074;51.232;6.826;2023-08-07T12:52:13;24.90;52.40
52073;DHT22;38074;51.232;6.826;2023-08-07T12:59:29;24.90;52.20
52073;DHT22;38074;51.232;6.826;2023-08-07T13:06:44;24.90;52.20
52073;DHT22;38074;51.232;6.826;2023-08-07T13:13:59;24.90;52.00
52073;DHT22;38074;51.232;6.826;2023-08-07T13:21:15;24.80;51.70
52073;DHT22;38074;51.232;6.826;2023-08-07T13:28:30;24.90;51.70
52073;DHT22;38074;51.232;6.826;2023-08-07T13:35:46;24.80;51.50
52073;DHT22;38074;51.232;6.826;2023-08-07T13:43:02;24.90;51.50
52073;DHT22;38074;51.232;6.826;2023-08-07T13:50:22;24.90;51.30
52073;DHT22;38074;51.232;6.826;2023-08-07T13:57:38;24.90;51.30
52073;DHT22;38074;51.232;6.826;2023-08-07T14:04:53;24.90;51.20
52073;DHT22;38074;51.232;6.826;2023-08-07T14:12:09;24.90;51.10
52073;DHT22;38074;51.232;6.826;2023-08-07T14:19:24;24.90;50.90
52073;DHT22;38074;51.232;6.826;2023-08-07T14:26:40;24.90;51.00
52073;DHT22;38074;51.232;6.826;2023-08-07T14:33:55;24.90;51.10
52073;DHT22;38074;51.232;6.826;2023-08-07T14:41:11;25.00;51.40
52073;DHT22;38074;51.232;6.826;2023-08-07T14:48:27;25.00;51.00
52073;DHT22;38074;51.232;6.826;2023-08-07T14:55:43;25.00;50.90
52073;DHT22;38074;51.232;6.826;2023-08-07T15:02:59;25.10;50.90
52073;DHT22;38074;51.232;6.826;2023-08-07T15:10:14;25.10;50.80
52073;DHT22;38074;51.232;6.826;2023-08-07T15:17:30;25.20;50.80
52073;DHT22;38074;51.232;6.826;2023-08-07T15:24:45;25.10;50.70
52073;DHT22;38074;51.232;6.826;2023-08-07T15:32:01;25.10;50.70
52073;DHT22;38074;51.232;6.826;2023-08-07T15:39:16;25.20;50.70
52073;DHT22;38074;51.232;6.826;2023-08-07T15:46:32;25.10;50.70
52073;DHT22;38074;51.232;6.826;2023-08-07T15:53:48;25.10;50.50
52073;DHT22;38074;51.232;6.826;2023-08-07T16:01:03;25.10;50.50
52073;DHT22;38074;51.232;6.826;2023-08-07T16:08:19;25.10;50.60
52073;DHT22;38074;51.232;6.826;2023-08-07T16:15:34;25.10;50.60
52073;DHT22;38074;51.232;6.826;2023-08-07T16:22:50;25.00;50.60
52073;DHT22;38074;51.232;6.826;2023-08-07T16:30:06;25.00;50.60
52073;DHT22;38074;51.232;6.826;2023-08-07T16:37:21;25.00;50.80
52073;DHT22;38074;51.232;6.826;2023-08-07T16:44:37;25.00;50.60
52073;DHT22;38074;51.232;6.826;2023-08-07T16:51:52;25.00;50.40
52073;DHT22;38074;51.232;6.826;2023-08-07T16:59:10;25.00;50.70
52073;DHT22;38074;51.232;6.826;2023-08-07T17:06:25;25.10;50.70
52073;DHT22;38074;51.232;6.826;2023-08-07T17:13:41;25.20;50.80
52073;DHT22;38074;51.232;6.826;2023-08-07T17:20:56;25.10;50.70
52073;DHT22;38074;51.232;6.826;2023-08-07T17:28:12;25.10;50.70
52073;DHT22;38074;51.232;6.826;2023-08-07T17:35:28;25.10;50.70
52073;DHT22;38074;51.232;6.826;2023-08-07T17:42:45;25.10;50.70
52073;DHT22;38074;51.232;6.826;2023-08-07T17:50:00;25.10;50.60
52073;DHT22;38074;51.232;6.826;2023-08-07T17:57:16;25.10;50.60
52073;DHT22;38074;51.232;6.826;2023-08-07T18:04:32;25.10;50.60
52073;DHT22;38074;51.232;6.826;2023-08-07T18:11:47;25.10;50.50
52073;DHT22;38074;51.232;6.826;2023-08-07T18:19:03;25.10;50.40
52073;DHT22;38074;51.232;6.826;2023-08-07T18:26:18;25.10;50.20
52073;DHT22;38074;51.232;6.826;2023-08-07T18:33:34;25.10;50.00
52073;DHT22;38074;51.232;6.826;2023-08-07T18:40:49;25.10;50.10
52073;DHT22;38074;51.232;6.826;2023-08-07T18:48:05;25.10;50.10
52073;DHT22;38074;51.232;6.826;2023-08-07T18:55:21;25.10;50.00
52073;DHT22;38074;51.232;6.826;2023-08-07T19:02:36;25.10;50.00
52073;DHT22;38074;51.232;6.826;2023-08-07T19:09:53;25.20;50.10
52073;DHT22;38074;51.232;6.826;2023-08-07T19:17:08;25.10;50.00
52073;DHT22;38074;51.232;6.826;2023-08-07T19:24:24;25.10;50.00
52073;DHT22;38074;51.232;6.826;2023-08-07T19:31:39;25.10;50.10
52073;DHT22;38074;51.232;6.826;2023-08-07T19:38:55;25.00;50.10
52073;DHT22;38074;51.232;6.826;2023-08-07T19:46:10;25.00;50.20
52073;DHT22;38074;51.232;6.826;2023-08-07T19:53:26;25.00;50.30
52073;DHT22;38074;51.232;6.826;2023-08-07T20:00:41;24.90;50.40
52073;DHT22;38074;51.232;6.826;2023-08-07T20:07:57;25.00;50.40
52073;DHT22;38074;51.232;6.826;2023-08-07T20:15:12;24.90;50.40
52073;DHT22;38074;51.232;6.826;2023-08-07T20:22:29;24.90;50.50
52073;DHT22;38074;51.232;6.826;2023-08-07T20:29:44;24.90;50.50
52073;DHT22;38074;51.232;6.826;2023-08-07T20:36:59;24.90;50.60
52073;DHT22;38074;51.232;6.826;2023-08-07T20:44:18;24.90;50.60
52073;DHT22;38074;51.232;6.826;2023-08-07T20:51:33;24.90;50.70
52073;DHT22;38074;51.232;6.826;2023-08-07T20:58:49;24.90;50.70
52073;DHT22;38074;51.232;6.826;2023-08-07T21:06:05;24.90;50.80
52073;DHT22;38074;51.232;6.826;2023-08-07T21:13:20;24.90;50.80
52073;DHT22;38074;51.232;6.826;2023-08-07T21:20:36;24.80;50.80
52073;DHT22;38074;51.232;6.826;2023-08-07T21:27:52;24.90;50.90
52073;DHT22;38074;51.232;6.826;2023-08-07T21:35:07;24.90;51.00
52073;DHT22;38074;51.232;6.826;2023-08-07T21:42:23;24.90;51.00
52073;DHT22;38074;51.232;6.826;2023-08-07T21:49:38;24.80;51.00
52073;DHT22;38074;51.232;6.826;2023-08-07T21:56:54;24.80;51.00
52073;DHT22;38074;51.232;6.826;2023-08-07T22:04:09;24.80;51.00
52073;DHT22;38074;51.232;6.826;2023-08-07T22:11:25;24.90;51.20
52073;DHT22;38074;51.232;6.826;2023-08-07T22:18:40;24.80;51.20
52073;DHT22;38074;51.232;6.826;2023-08-07T22:25:56;24.90;51.30
52073;DHT22;38074;51.232;6.826;2023-08-07T22:33:11;24.80;51.30
52073;DHT22;38074;51.232;6.826;2023-08-07T22:40:27;24.80;51.30
52073;DHT22;38074;51.232;6.826;2023-08-07T22:47:42;24.80;51.40
52073;DHT22;38074;51.232;6.826;2023-08-07T22:54:58;24.80;51.40
52073;DHT22;38074;51.232;6.826;2023-08-07T23:02:13;24.80;51.40
52073;DHT22;38074;51.232;6.826;2023-08-07T23:09:29;24.80;51.40
52073;DHT22;38074;51.232;6.826;2023-08-07T23:16:44;24.80;51.50
52073;DHT22;38074;51.232;6.826;2023-08-07T23:24:00;24.80;51.50
52073;DHT22;38074;51.232;6.826;2023-08-07T23:31:15;24.80;51.50
52073;DHT22;38074;51.232;6.826;2023-08-07T23:38:30;24.80;51.60
52073;DHT22;38074;51.232;6.826;2023-08-07T23:45:46;24.80;51.50
52073;DHT22;38074;51.232;6.826;2023-08-07T23:53:01;24.70;51.60
